Prosser, Nebraska
Current Conditions -  °F | °C
As of 5:53 AM on Thursday 27 Nov 2014 (Local Time) from KHSI Reporting Station
Overcast Overcast  
Wind Chill: 13°   Ceiling: 7500
Heat Index: 20°   Visibility: 10mi
Dew Point: 14°   Wind: 5mph
Humidity: 78%   Direction: 160°SSE
Pressure: 30.42"   Gusts: NA
Location:  40.8074°N, 98.6117°W
Report Text: KHSI 271153Z AUTO 16004KT 10SM OVC075 M07/M10 A3042 RMK AO2 SLP329 T10671100 11061 21094 51004
Loading
Personal Weather Stations






























Interactive Weather Map New forecast layout! Learn more

10-Day Weather Forecast

Advertisements
Track Severe Weather on mobile